createdAt,value
2022-11-29T00:01:26.799Z,8.60
2022-11-29T00:03:54.510Z,8.23
2022-11-29T00:06:22.799Z,8.20
2022-11-29T00:08:50.515Z,7.70
2022-11-29T00:11:37.803Z,7.72
2022-11-29T00:14:05.545Z,10.25
2022-11-29T00:16:32.819Z,9.48
2022-11-29T00:19:00.163Z,8.63
2022-11-29T00:21:27.431Z,8.68
2022-11-29T00:23:54.650Z,9.20
2022-11-29T00:26:21.921Z,10.85
2022-11-29T00:28:49.257Z,9.93
2022-11-29T00:31:16.607Z,9.95
2022-11-29T00:33:44.069Z,10.32
2022-11-29T00:36:11.603Z,9.45
2022-11-29T00:38:38.880Z,10.48
2022-11-29T00:41:06.418Z,9.40
2022-11-29T00:43:33.918Z,9.57
2022-11-29T00:46:01.703Z,9.95
2022-11-29T00:48:29.190Z,9.13
2022-11-29T00:50:56.409Z,8.40
2022-11-29T00:53:23.977Z,9.73
2022-11-29T00:55:52.134Z,8.48
2022-11-29T00:58:20.092Z,10.73
2022-11-29T01:00:47.855Z,10.88
2022-11-29T01:03:15.643Z,11.02
2022-11-29T01:05:43.083Z,11.48
2022-11-29T01:08:10.849Z,12.30
2022-11-29T01:10:38.092Z,12.43
2022-11-29T01:13:05.309Z,12.30
2022-11-29T01:15:32.817Z,11.70
2022-11-29T01:18:00.365Z,11.63
2022-11-29T01:20:27.649Z,11.45
2022-11-29T01:22:54.894Z,11.65
2022-11-29T01:25:22.159Z,11.65
2022-11-29T01:27:49.409Z,12.27
2022-11-29T01:30:16.906Z,10.93
2022-11-29T01:32:44.147Z,11.80
2022-11-29T01:35:11.492Z,11.70
2022-11-29T01:37:38.734Z,12.63
2022-11-29T01:40:06.336Z,12.18
2022-11-29T01:42:33.569Z,13.32
2022-11-29T01:45:21.231Z,12.77
2022-11-29T01:47:49.602Z,13.18
2022-11-29T01:50:17.159Z,12.60
2022-11-29T01:52:44.734Z,13.50
2022-11-29T01:55:12.072Z,12.02
2022-11-29T01:57:40.779Z,12.48
2022-11-29T02:00:11.292Z,12.43
2022-11-29T02:02:43.305Z,13.57
2022-11-29T02:05:13.240Z,12.13
2022-11-29T02:07:40.973Z,13.07
2022-11-29T02:10:08.648Z,13.52
2022-11-29T02:12:35.839Z,13.07
2022-11-29T02:15:09.200Z,13.30
2022-11-29T02:17:36.433Z,12.10
2022-11-29T02:20:22.826Z,13.55
2022-11-29T02:22:53.060Z,13.45
2022-11-29T02:25:23.112Z,14.05
2022-11-29T02:27:53.108Z,14.65
2022-11-29T02:30:20.730Z,14.38
2022-11-29T02:32:50.788Z,14.40
2022-11-29T02:35:36.290Z,13.85
2022-11-29T02:38:03.487Z,13.75
2022-11-29T02:40:57.310Z,13.90
2022-11-29T02:43:38.152Z,14.82
2022-11-29T02:46:13.582Z,14.32
2022-11-29T02:48:56.174Z,14.85
2022-11-29T02:51:23.459Z,15.35
2022-11-29T02:53:53.461Z,15.50
2022-11-29T02:56:23.713Z,15.93
2022-11-29T02:59:17.218Z,16.67
2022-11-29T03:01:59.517Z,15.55
2022-11-29T03:04:34.113Z,15.57
2022-11-29T03:07:10.183Z,16.30
2022-11-29T03:09:37.420Z,14.82
2022-11-29T03:12:14.361Z,17.00
2022-11-29T03:14:41.813Z,15.18
2022-11-29T03:17:26.401Z,16.08
2022-11-29T03:20:05.020Z,15.45
2022-11-29T03:22:51.088Z,14.98
2022-11-29T03:25:22.314Z,16.02
2022-11-29T03:27:57.614Z,15.18
2022-11-29T03:33:18.297Z,14.93
2022-11-29T03:35:57.882Z,13.82
2022-11-29T03:38:29.175Z,14.25
2022-11-29T03:41:11.040Z,14.65
2022-11-29T03:43:56.773Z,15.25
2022-11-29T03:48:54.097Z,14.27
2022-11-29T03:51:24.158Z,13.25
2022-11-29T03:54:08.805Z,14.27
2022-11-29T03:56:37.448Z,15.48
2022-11-29T03:59:20.025Z,13.82
2022-11-29T04:02:05.966Z,15.40
2022-11-29T04:04:56.787Z,14.30
2022-11-29T04:07:24.124Z,13.57
2022-11-29T04:10:10.142Z,14.35
2022-11-29T04:12:52.567Z,14.70
2022-11-29T04:15:30.666Z,14.23
2022-11-29T04:17:57.876Z,12.60
2022-11-29T04:20:45.412Z,13.23
2022-11-29T04:23:21.153Z,13.40
2022-11-29T04:25:48.632Z,13.90
2022-11-29T04:28:15.932Z,14.85
2022-11-29T04:31:01.997Z,14.48
2022-11-29T04:33:48.092Z,14.73
2022-11-29T04:36:27.444Z,14.60
2022-11-29T04:39:03.435Z,15.13
2022-11-29T04:41:30.624Z,16.00
2022-11-29T04:44:08.005Z,14.20
2022-11-29T04:46:41.349Z,15.13
2022-11-29T04:49:27.065Z,16.08
2022-11-29T04:51:57.140Z,15.30
2022-11-29T04:54:30.735Z,15.93
2022-11-29T04:57:02.718Z,15.68
2022-11-29T04:59:32.958Z,16.73
2022-11-29T05:02:03.344Z,16.88
2022-11-29T05:04:49.438Z,16.20
2022-11-29T05:07:25.691Z,15.57
2022-11-29T05:10:19.367Z,15.45
2022-11-29T05:12:52.252Z,15.40
2022-11-29T05:15:22.319Z,15.63
2022-11-29T05:18:15.738Z,16.27
2022-11-29T05:20:50.936Z,15.95
2022-11-29T05:23:34.218Z,16.77
2022-11-29T05:26:15.735Z,16.02
2022-11-29T05:29:02.515Z,14.30
2022-11-29T05:31:56.945Z,13.85
2022-11-29T05:35:02.914Z,14.73
2022-11-29T05:37:46.227Z,15.05
2022-11-29T05:40:16.237Z,14.68
2022-11-29T05:42:43.454Z,16.35
2022-11-29T05:45:18.017Z,16.23
2022-11-29T05:48:05.429Z,15.88
2022-11-29T05:50:51.463Z,14.88
2022-11-29T05:53:23.147Z,15.93
2022-11-29T05:56:08.767Z,16.23
2022-11-29T05:58:38.931Z,15.50
2022-11-29T06:01:25.041Z,15.32
2022-11-29T06:03:58.369Z,15.68
2022-11-29T06:06:25.588Z,15.77
2022-11-29T06:08:58.258Z,15.30
2022-11-29T06:11:29.288Z,17.40
2022-11-29T06:14:03.172Z,16.38
2022-11-29T06:16:51.638Z,16.48
2022-11-29T06:19:22.033Z,16.10
2022-11-29T06:22:00.151Z,15.52
2022-11-29T06:24:50.961Z,18.17
2022-11-29T06:27:38.433Z,14.65
2022-11-29T06:30:13.963Z,14.85
2022-11-29T06:32:41.241Z,16.02
2022-11-29T06:35:13.035Z,16.05
2022-11-29T06:37:42.838Z,17.48
2022-11-29T06:40:15.877Z,19.10
2022-11-29T06:42:43.325Z,16.52
2022-11-29T06:45:14.671Z,16.38
2022-11-29T06:47:46.634Z,18.33
2022-11-29T06:50:13.807Z,18.73
2022-11-29T06:52:50.072Z,18.67
2022-11-29T06:55:25.186Z,18.50
2022-11-29T06:57:55.475Z,18.15
2022-11-29T07:00:41.609Z,17.17
2022-11-29T07:03:27.394Z,16.58
2022-11-29T07:08:23.149Z,14.57
2022-11-29T07:10:53.188Z,16.60
2022-11-29T07:13:21.065Z,18.23
2022-11-29T07:15:57.303Z,19.23
2022-11-29T07:18:27.301Z,19.88
2022-11-29T07:21:06.481Z,21.00
2022-11-29T07:23:36.535Z,19.23
2022-11-29T07:26:25.354Z,18.55
2022-11-29T07:28:55.609Z,18.65
2022-11-29T07:31:22.987Z,19.75
2022-11-29T07:33:50.213Z,19.52
2022-11-29T07:36:37.555Z,20.50
2022-11-29T07:39:17.459Z,21.20
2022-11-29T07:41:44.688Z,20.50
2022-11-29T07:44:21.347Z,19.30
2022-11-29T07:46:48.661Z,20.30
2022-11-29T07:49:15.996Z,19.42
2022-11-29T07:51:43.293Z,20.20
2022-11-29T07:54:11.567Z,19.95
2022-11-29T07:56:38.905Z,21.33
2022-11-29T07:59:11.083Z,22.67
2022-11-29T08:01:38.392Z,20.55
2022-11-29T08:04:05.659Z,21.88
2022-11-29T08:06:32.937Z,21.02
2022-11-29T08:09:00.732Z,22.52
2022-11-29T08:11:28.451Z,20.23
2022-11-29T08:13:59.272Z,19.00
2022-11-29T08:16:26.646Z,20.83
2022-11-29T08:18:53.934Z,21.77
2022-11-29T08:21:21.417Z,20.55
2022-11-29T08:23:49.401Z,22.77
2022-11-29T08:26:17.026Z,21.00
2022-11-29T08:28:44.754Z,20.38
2022-11-29T08:31:13.154Z,20.95
2022-11-29T08:33:42.501Z,20.13
2022-11-29T08:36:10.936Z,19.30
2022-11-29T08:38:38.464Z,17.85
2022-11-29T08:41:06.537Z,19.73
2022-11-29T08:43:33.752Z,16.77
2022-11-29T08:46:01.019Z,23.40
2022-11-29T08:48:28.360Z,19.27
2022-11-29T08:50:56.706Z,21.42
2022-11-29T08:53:42.680Z,20.08
2022-11-29T08:59:06.308Z,19.40
2022-11-29T09:01:33.705Z,19.52
2022-11-29T09:04:03.136Z,19.30
2022-11-29T09:06:32.548Z,20.40
2022-11-29T09:09:01.114Z,19.30
2022-11-29T09:11:29.670Z,19.73
2022-11-29T09:13:58.636Z,20.40
2022-11-29T09:16:27.279Z,21.77
2022-11-29T09:18:56.105Z,19.85
2022-11-29T09:21:27.525Z,21.27
2022-11-29T09:23:58.945Z,22.35
2022-11-29T09:26:31.314Z,19.83
2022-11-29T09:29:02.632Z,18.92
2022-11-29T09:31:31.245Z,15.60
2022-11-29T09:33:58.901Z,17.20
2022-11-29T09:36:28.928Z,18.08
2022-11-29T09:38:56.640Z,15.77
2022-11-29T09:41:47.071Z,17.40
2022-11-29T09:44:21.826Z,14.32
2022-11-29T09:47:07.797Z,15.45
2022-11-29T09:49:38.203Z,16.90
2022-11-29T09:52:17.827Z,16.20
2022-11-29T09:54:52.181Z,15.82
2022-11-29T09:57:19.828Z,15.35
2022-11-29T09:59:48.787Z,18.08
2022-11-29T10:02:22.282Z,16.90
2022-11-29T10:04:51.590Z,15.60
2022-11-29T10:07:22.054Z,16.75
2022-11-29T10:09:55.079Z,17.02
2022-11-29T10:12:31.628Z,16.58
2022-11-29T10:15:02.438Z,17.63
2022-11-29T10:17:44.426Z,17.17
2022-11-29T10:20:19.388Z,16.52
2022-11-29T10:22:49.509Z,18.05
2022-11-29T10:25:20.907Z,17.48
2022-11-29T10:27:48.185Z,15.98
2022-11-29T10:30:16.536Z,16.50
2022-11-29T10:32:46.246Z,18.98
2022-11-29T10:35:14.820Z,17.48
2022-11-29T10:37:43.914Z,16.13
2022-11-29T10:40:21.522Z,17.05
2022-11-29T10:42:48.988Z,15.55
2022-11-29T10:45:35.186Z,17.23
2022-11-29T10:48:12.169Z,15.98
2022-11-29T10:50:41.931Z,15.35
2022-11-29T10:53:16.969Z,16.00
2022-11-29T10:55:46.588Z,16.73
2022-11-29T10:58:27.957Z,16.30
2022-11-29T11:01:06.832Z,15.10
2022-11-29T11:03:39.431Z,16.52
2022-11-29T11:06:14.537Z,18.42
2022-11-29T11:08:46.746Z,16.25
2022-11-29T11:11:14.807Z,17.48
2022-11-29T11:13:42.402Z,16.83
2022-11-29T11:16:20.773Z,16.27
2022-11-29T11:18:49.169Z,19.08
2022-11-29T11:21:17.997Z,15.02
2022-11-29T11:23:58.772Z,16.40
2022-11-29T11:26:26.809Z,16.50
2022-11-29T11:28:59.677Z,15.85
2022-11-29T11:31:32.303Z,15.60
2022-11-29T11:34:19.492Z,16.08
2022-11-29T11:36:46.740Z,19.85
2022-11-29T11:39:20.069Z,16.73
2022-11-29T11:42:06.048Z,16.65
2022-11-29T11:44:48.440Z,17.60
2022-11-29T11:47:27.431Z,14.68
2022-11-29T11:49:56.808Z,16.05
2022-11-29T11:52:26.494Z,15.45
2022-11-29T11:54:59.765Z,17.25
2022-11-29T11:57:27.555Z,16.90
2022-11-29T11:59:56.280Z,14.95
2022-11-29T12:02:37.008Z,14.52
2022-11-29T12:05:07.116Z,15.50
2022-11-29T12:08:07.681Z,15.65
2022-11-29T12:10:31.970Z,16.10
2022-11-29T12:13:00.219Z,14.73
2022-11-29T12:15:30.402Z,15.27
2022-11-29T12:18:12.418Z,14.20
2022-11-29T12:20:55.615Z,14.43
2022-11-29T12:23:28.179Z,14.35
2022-11-29T12:25:55.508Z,14.73
2022-11-29T12:28:25.840Z,14.60
2022-11-29T12:31:17.649Z,14.77
2022-11-29T12:33:50.674Z,14.68
2022-11-29T12:36:46.969Z,13.50
2022-11-29T12:39:28.191Z,15.18
2022-11-29T12:41:58.379Z,14.15
2022-11-29T12:44:40.581Z,14.30
2022-11-29T12:47:35.317Z,15.57
2022-11-29T12:50:07.420Z,15.77
2022-11-29T12:52:34.880Z,15.02
2022-11-29T12:55:20.796Z,14.80
2022-11-29T12:57:55.651Z,14.70
2022-11-29T13:00:23.521Z,14.63
2022-11-29T13:02:50.742Z,15.20
2022-11-29T13:05:18.981Z,14.25
2022-11-29T13:07:46.315Z,14.40
2022-11-29T13:10:17.814Z,13.90
2022-11-29T13:12:51.417Z,14.63
2022-11-29T13:15:35.681Z,14.10
2022-11-29T13:18:02.927Z,15.57
2022-11-29T13:20:45.246Z,13.68
2022-11-29T13:23:15.217Z,15.05
2022-11-29T13:25:44.047Z,14.68
2022-11-29T13:28:31.594Z,15.20
2022-11-29T13:31:03.231Z,15.48
2022-11-29T13:33:39.786Z,13.80
2022-11-29T13:36:22.172Z,14.18
2022-11-29T13:38:58.616Z,15.82
2022-11-29T13:41:34.966Z,15.50
2022-11-29T13:44:03.085Z,15.50
2022-11-29T13:46:37.509Z,18.48
2022-11-29T13:49:04.783Z,16.40
2022-11-29T13:51:38.451Z,15.93
2022-11-29T13:54:09.368Z,19.23
2022-11-29T13:56:42.776Z,16.25
2022-11-29T13:59:15.044Z,14.63
2022-11-29T14:01:46.824Z,15.27
2022-11-29T14:04:20.269Z,13.95
2022-11-29T14:06:48.387Z,14.27
2022-11-29T14:09:39.007Z,13.40
2022-11-29T14:12:39.536Z,14.25
2022-11-29T14:15:06.919Z,13.38
2022-11-29T14:17:54.159Z,14.93
2022-11-29T14:20:28.592Z,12.75
2022-11-29T14:23:05.001Z,16.20
2022-11-29T14:25:51.164Z,15.38
2022-11-29T14:28:19.200Z,13.45
2022-11-29T14:30:48.413Z,14.85
2022-11-29T14:33:21.582Z,15.07
2022-11-29T14:36:24.524Z,16.58
2022-11-29T14:39:03.825Z,15.05
2022-11-29T14:41:49.939Z,15.07
2022-11-29T14:44:20.090Z,14.15
2022-11-29T14:47:00.146Z,15.13
2022-11-29T14:49:28.436Z,14.60
2022-11-29T14:52:07.675Z,14.85
2022-11-29T14:54:35.636Z,15.77
2022-11-29T14:57:21.867Z,15.27
2022-11-29T14:59:51.914Z,14.88
2022-11-29T15:02:22.030Z,14.60
2022-11-29T15:04:51.739Z,14.52
2022-11-29T15:07:30.116Z,13.57
2022-11-29T15:10:00.252Z,15.02
2022-11-29T15:12:37.973Z,14.98
2022-11-29T15:15:24.141Z,14.80
2022-11-29T15:18:20.949Z,15.45
2022-11-29T15:20:57.115Z,15.38
2022-11-29T15:23:24.401Z,15.40
2022-11-29T15:25:52.947Z,14.45
2022-11-29T15:28:27.757Z,14.48
2022-11-29T15:31:03.221Z,15.30
2022-11-29T15:33:30.699Z,14.70
2022-11-29T15:36:04.594Z,14.90
2022-11-29T15:38:41.973Z,14.32
2022-11-29T15:41:27.649Z,14.85
2022-11-29T15:46:25.876Z,15.82
2022-11-29T15:48:53.196Z,17.00
2022-11-29T15:51:30.199Z,15.68
2022-11-29T15:54:11.747Z,14.10
2022-11-29T15:56:45.967Z,16.20
2022-11-29T15:59:19.832Z,15.70
2022-11-29T16:01:47.733Z,14.65
2022-11-29T16:04:18.458Z,15.70
2022-11-29T16:06:47.096Z,17.08
2022-11-29T16:09:17.468Z,17.05
2022-11-29T16:11:45.204Z,15.60
2022-11-29T16:14:12.427Z,19.83
2022-11-29T16:16:40.771Z,21.13
2022-11-29T16:19:20.200Z,18.90
2022-11-29T16:21:58.956Z,18.38
2022-11-29T16:24:27.071Z,20.13
2022-11-29T16:26:54.657Z,17.42
2022-11-29T16:29:27.762Z,18.60
2022-11-29T16:31:55.127Z,17.10
2022-11-29T16:34:24.869Z,15.48
2022-11-29T16:37:00.990Z,16.08
2022-11-29T16:39:28.836Z,17.25
2022-11-29T16:42:03.499Z,16.05
2022-11-29T16:44:47.122Z,15.68
2022-11-29T16:47:17.271Z,16.02
2022-11-29T16:49:44.752Z,15.20
2022-11-29T16:52:32.303Z,15.82
2022-11-29T16:54:59.534Z,14.80
2022-11-29T16:57:28.268Z,14.70
2022-11-29T16:59:55.526Z,16.52
2022-11-29T17:02:22.800Z,17.33
2022-11-29T17:04:51.372Z,16.70
2022-11-29T17:07:22.075Z,14.88
2022-11-29T17:09:49.414Z,15.57
2022-11-29T17:12:16.729Z,14.23
2022-11-29T17:14:44.353Z,13.55
2022-11-29T17:17:15.737Z,14.82
2022-11-29T17:19:43.054Z,14.75
2022-11-29T17:22:10.598Z,15.10
2022-11-29T17:24:38.037Z,15.15
2022-11-29T17:27:05.267Z,14.95
2022-11-29T17:29:32.506Z,13.57
2022-11-29T17:31:59.762Z,14.38
2022-11-29T17:34:27.014Z,13.98
2022-11-29T17:36:54.239Z,14.20
2022-11-29T17:39:22.730Z,14.43
2022-11-29T17:41:50.310Z,13.77
2022-11-29T17:44:17.611Z,14.15
2022-11-29T17:46:44.950Z,14.02
2022-11-29T17:49:12.226Z,13.25
2022-11-29T17:51:51.794Z,15.57
2022-11-29T17:54:19.803Z,14.63
2022-11-29T17:56:47.073Z,14.57
2022-11-29T17:59:14.264Z,13.20
2022-11-29T18:01:41.650Z,13.77
2022-11-29T18:04:08.968Z,14.02
2022-11-29T18:06:38.041Z,15.90
2022-11-29T18:09:06.086Z,14.57
2022-11-29T18:11:43.302Z,13.45
2022-11-29T18:14:15.511Z,13.25
2022-11-29T18:16:45.038Z,13.45
2022-11-29T18:19:13.319Z,12.98
2022-11-29T18:21:40.697Z,15.48
2022-11-29T18:24:08.399Z,17.27
2022-11-29T18:26:36.543Z,16.10
2022-11-29T18:29:04.464Z,19.60
2022-11-29T18:31:33.239Z,22.35
2022-11-29T18:34:01.753Z,22.67
2022-11-29T18:36:30.177Z,20.08
2022-11-29T18:38:59.260Z,17.15
2022-11-29T18:41:28.347Z,17.17
2022-11-29T18:44:03.219Z,16.90
2022-11-29T18:46:32.510Z,16.17
2022-11-29T18:49:01.136Z,20.42
2022-11-29T18:51:29.618Z,21.55
2022-11-29T18:53:57.101Z,20.88
2022-11-29T18:56:25.550Z,17.98
2022-11-29T18:58:58.442Z,20.67
2022-11-29T19:01:27.111Z,17.25
2022-11-29T19:03:55.735Z,17.75
2022-11-29T19:06:24.340Z,18.80
2022-11-29T19:08:52.586Z,18.15
2022-11-29T19:11:21.184Z,17.52
2022-11-29T19:13:49.026Z,16.40
2022-11-29T19:16:17.885Z,16.38
2022-11-29T19:18:50.867Z,18.67
2022-11-29T19:21:18.427Z,19.23
2022-11-29T19:23:46.042Z,17.95
2022-11-29T19:26:14.178Z,19.30
2022-11-29T19:28:42.653Z,18.88
2022-11-29T19:31:10.636Z,18.42
2022-11-29T19:33:38.928Z,18.15
2022-11-29T19:36:06.604Z,19.33
2022-11-29T19:38:35.341Z,19.13
2022-11-29T19:41:09.368Z,21.33
2022-11-29T19:43:36.719Z,21.08
2022-11-29T19:46:11.172Z,17.80
2022-11-29T19:48:38.510Z,17.30
2022-11-29T19:51:06.312Z,16.95
2022-11-29T19:53:34.061Z,19.08
2022-11-29T19:56:04.438Z,18.30
2022-11-29T19:58:31.734Z,23.15
2022-11-29T20:01:12.874Z,21.13
2022-11-29T20:03:40.519Z,20.73
2022-11-29T20:06:08.090Z,17.92
2022-11-29T20:08:35.669Z,19.63
2022-11-29T20:11:19.351Z,18.45
2022-11-29T20:13:47.594Z,19.73
2022-11-29T20:16:17.157Z,19.95
2022-11-29T20:18:50.435Z,19.20
2022-11-29T20:21:38.111Z,19.80
2022-11-29T20:24:06.655Z,20.67
2022-11-29T20:26:35.032Z,22.77
2022-11-29T20:29:02.572Z,21.60
2022-11-29T20:31:30.202Z,22.92
2022-11-29T20:33:57.738Z,23.95
2022-11-29T20:36:43.587Z,23.20
2022-11-29T20:39:19.918Z,23.83
2022-11-29T20:42:07.359Z,23.52
2022-11-29T20:44:38.945Z,23.85
2022-11-29T20:47:12.522Z,25.83
2022-11-29T20:49:39.955Z,24.38
2022-11-29T20:52:08.188Z,24.17
2022-11-29T20:54:35.420Z,25.83
2022-11-29T20:57:02.710Z,22.48
2022-11-29T20:59:29.977Z,23.45
2022-11-29T21:01:57.647Z,22.35
2022-11-29T21:04:24.931Z,24.60
2022-11-29T21:06:52.172Z,25.25
2022-11-29T21:09:19.402Z,28.88
2022-11-29T21:11:46.807Z,25.85
2022-11-29T21:14:14.268Z,24.05
2022-11-29T21:16:41.630Z,22.70
2022-11-29T21:19:13.326Z,23.15
2022-11-29T21:21:50.973Z,25.48
2022-11-29T21:24:30.535Z,24.48
2022-11-29T21:26:57.862Z,26.23
2022-11-29T21:29:25.284Z,22.65
2022-11-29T21:31:53.769Z,21.70
2022-11-29T21:34:21.543Z,24.35
2022-11-29T21:36:56.797Z,21.42
2022-11-29T21:41:51.133Z,20.75
2022-11-29T21:44:18.340Z,21.27
2022-11-29T21:46:45.675Z,22.95
2022-11-29T21:49:12.926Z,22.88
2022-11-29T21:51:40.253Z,21.40
2022-11-29T21:54:07.493Z,25.42
2022-11-29T21:56:34.702Z,25.27
2022-11-29T21:59:01.944Z,24.63
2022-11-29T22:01:29.612Z,23.13
2022-11-29T22:03:57.116Z,24.13
2022-11-29T22:06:26.174Z,24.63
2022-11-29T22:08:53.509Z,22.35
2022-11-29T22:11:31.028Z,23.85
2022-11-29T22:14:15.028Z,22.67
2022-11-29T22:16:43.070Z,22.52
2022-11-29T22:19:13.850Z,22.55
2022-11-29T22:21:42.009Z,24.55
2022-11-29T22:24:09.595Z,25.13
2022-11-29T22:26:37.656Z,25.58
2022-11-29T22:29:05.465Z,26.45
2022-11-29T22:31:33.183Z,27.48
2022-11-29T22:34:00.518Z,26.55
2022-11-29T22:36:27.741Z,26.45
2022-11-29T22:38:55.075Z,28.77
2022-11-29T22:41:22.545Z,28.48
2022-11-29T22:43:49.774Z,28.58
2022-11-29T22:46:20.893Z,26.40
2022-11-29T22:48:49.429Z,25.67
2022-11-29T22:51:18.177Z,24.58
2022-11-29T22:53:52.381Z,23.65
2022-11-29T22:56:20.046Z,25.25
2022-11-29T22:58:47.559Z,24.90
2022-11-29T23:01:18.984Z,23.85
2022-11-29T23:03:56.666Z,26.23
2022-11-29T23:06:27.970Z,23.85
2022-11-29T23:08:56.335Z,23.80
2022-11-29T23:11:25.446Z,26.23
2022-11-29T23:13:52.687Z,23.88
2022-11-29T23:16:22.050Z,26.70
2022-11-29T23:18:49.559Z,24.88
2022-11-29T23:21:21.027Z,24.80
2022-11-29T23:23:54.528Z,23.10
2022-11-29T23:26:27.929Z,26.02
2022-11-29T23:28:55.526Z,23.83
2022-11-29T23:31:23.357Z,24.98
2022-11-29T23:33:50.681Z,24.45
2022-11-29T23:36:18.219Z,22.05
2022-11-29T23:38:45.459Z,22.85
2022-11-29T23:41:12.907Z,23.00
2022-11-29T23:43:41.006Z,24.55
2022-11-29T23:46:09.573Z,21.73
2022-11-29T23:48:36.799Z,23.33
2022-11-29T23:51:04.054Z,22.98
2022-11-29T23:53:31.382Z,23.52
2022-11-29T23:55:59.785Z,21.02
2022-11-29T23:58:27.753Z,23.35
